Time;durP1;ratioP1;P1;durP2;ratioP2;P2;SDS_P1;SDS_P2;PMS_P1;PMS_P2;Temp;Humidity;BMP_temperature;BMP_pressure;BME280_temperature;BME280_humidity;BME280_pressure;Samples;Min_cycle;Max_cycle;Signal;HPM_P1;HPM_P2
2022/12/07 00:01:39;;;;;;;13.23;10.80;;;3.40;99.90;;;;;;5040960;28;20479;-56
2022/12/07 00:04:10;;;;;;;14.60;10.70;;;3.40;99.90;;;;;;5032704;28;20477;-55
2022/12/07 00:06:40;;;;;;;17.17;11.17;;;3.40;99.90;;;;;;5032323;28;20486;-55
2022/12/07 00:09:12;;;;;;;17.03;10.77;;;3.30;99.90;;;;;;5032918;28;20463;-56
2022/12/07 00:11:40;;;;;;;14.40;10.83;;;3.30;99.90;;;;;;5040939;28;20468;-55
2022/12/07 00:14:12;;;;;;;12.57;10.07;;;3.30;99.90;;;;;;5036611;28;20517;-54
2022/12/07 00:16:41;;;;;;;13.63;9.47;;;3.40;99.90;;;;;;5031902;28;20477;-56
2022/12/07 00:19:11;;;;;;;13.60;9.97;;;3.40;99.90;;;;;;5032864;28;20830;-54
2022/12/07 00:21:40;;;;;;;14.27;10.00;;;3.50;99.90;;;;;;5031964;28;20477;-55
2022/12/07 00:24:08;;;;;;;11.63;9.07;;;3.50;99.90;;;;;;5032349;28;20871;-56
2022/12/07 00:26:39;;;;;;;13.43;9.83;;;3.60;99.90;;;;;;5040759;28;20835;-56
2022/12/07 00:29:09;;;;;;;13.87;9.17;;;3.70;99.90;;;;;;5052332;28;20476;-55
2022/12/07 00:31:39;;;;;;;11.97;9.57;;;3.60;99.90;;;;;;5040455;28;20474;-55
2022/12/07 00:34:13;;;;;;;16.50;10.30;;;3.60;99.90;;;;;;5032268;28;20568;-54
2022/12/07 00:36:41;;;;;;;17.17;9.87;;;3.60;99.90;;;;;;5032447;28;20527;-56
2022/12/07 00:39:09;;;;;;;15.50;11.03;;;3.60;99.90;;;;;;5032610;28;20866;-55
2022/12/07 00:41:37;;;;;;;16.50;11.00;;;3.60;99.90;;;;;;5040392;28;20476;-56
2022/12/07 00:44:05;;;;;;;15.37;10.73;;;3.50;99.90;;;;;;5036781;28;20558;-54
2022/12/07 00:46:33;;;;;;;15.73;10.10;;;3.50;99.90;;;;;;5031985;28;20484;-55
2022/12/07 00:49:01;;;;;;;19.20;12.13;;;3.50;99.90;;;;;;5032544;28;20470;-56
2022/12/07 00:51:31;;;;;;;16.37;11.63;;;3.60;99.90;;;;;;5032241;28;20978;-57
2022/12/07 00:53:59;;;;;;;16.53;10.67;;;3.60;99.90;;;;;;5012679;28;20468;-56
2022/12/07 00:56:29;;;;;;;18.27;11.57;;;3.60;99.90;;;;;;5038151;28;20877;-55
2022/12/07 00:58:58;;;;;;;18.80;11.30;;;3.60;99.90;;;;;;5050351;28;20880;-57
2022/12/07 01:01:28;;;;;;;14.53;11.37;;;3.60;99.90;;;;;;5041694;28;20475;-56
2022/12/07 01:03:56;;;;;;;17.23;11.03;;;3.60;99.90;;;;;;5032293;28;20512;-56
2022/12/07 01:06:26;;;;;;;16.47;11.30;;;3.60;99.90;;;;;;5031947;28;20604;-54
2022/12/07 01:08:56;;;;;;;17.20;11.47;;;3.50;99.90;;;;;;5032132;28;20462;-56
2022/12/07 01:11:26;;;;;;;14.30;10.37;;;3.50;99.90;;;;;;5040081;28;20483;-55
2022/12/07 01:13:56;;;;;;;15.40;10.77;;;3.50;99.90;;;;;;5052275;28;20470;-56
2022/12/07 01:16:26;;;;;;;14.83;10.67;;;3.50;99.90;;;;;;5055830;28;20471;-55
2022/12/07 01:18:56;;;;;;;14.87;9.40;;;3.50;99.90;;;;;;5055778;28;20906;-56
2022/12/07 01:21:26;;;;;;;15.97;9.40;;;3.50;99.90;;;;;;5055322;28;20470;-56
2022/12/07 01:23:57;;;;;;;12.33;9.00;;;3.50;99.90;;;;;;5036493;28;20481;-56
2022/12/07 01:26:26;;;;;;;13.80;9.20;;;3.40;99.90;;;;;;5043383;28;20509;-55
2022/12/07 01:28:55;;;;;;;14.73;9.10;;;3.40;99.90;;;;;;5053276;28;20474;-54
2022/12/07 01:31:25;;;;;;;12.37;8.37;;;3.40;99.90;;;;;;5045538;28;20490;-55
2022/12/07 01:33:55;;;;;;;12.50;8.40;;;3.40;99.90;;;;;;5035124;28;20813;-56
2022/12/07 01:36:24;;;;;;;15.50;9.00;;;3.40;99.90;;;;;;5035281;28;20480;-56
2022/12/07 01:38:56;;;;;;;14.23;8.37;;;3.40;99.90;;;;;;5035478;28;20467;-55
2022/12/07 01:41:26;;;;;;;14.87;8.33;;;3.40;99.90;;;;;;5043488;28;20465;-56
2022/12/07 01:44:16;;;;;;;12.50;8.13;;;3.40;99.90;;;;;;5053094;28;20847;-54
2022/12/07 01:46:45;;;;;;;10.97;7.33;;;3.30;99.90;;;;;;5054981;28;20476;-56
2022/12/07 01:49:18;;;;;;;12.57;7.20;;;3.30;99.90;;;;;;5035981;28;20519;-55
2022/12/07 01:51:48;;;;;;;13.43;7.30;;;3.30;99.90;;;;;;5035109;28;20499;-55
2022/12/07 01:54:19;;;;;;;9.80;7.10;;;3.30;99.90;;;;;;5035244;28;20520;-56
2022/12/07 01:56:52;;;;;;;9.63;6.57;;;3.20;99.90;;;;;;5040244;28;20843;-55
2022/12/07 01:59:24;;;;;;;9.70;6.03;;;3.30;99.90;;;;;;5055039;28;20528;-55
2022/12/07 02:01:53;;;;;;;10.40;6.90;;;3.20;99.90;;;;;;5040604;28;20497;-55
2022/12/07 02:04:22;;;;;;;20.53;6.00;;;3.10;99.90;;;;;;5034626;28;20471;-56
2022/12/07 02:06:51;;;;;;;9.63;6.03;;;3.10;99.90;;;;;;5034475;28;20487;-55
2022/12/07 02:09:20;;;;;;;10.87;5.67;;;3.00;99.90;;;;;;5034915;28;20819;-55
2022/12/07 02:11:48;;;;;;;8.07;5.53;;;3.00;99.90;;;;;;5043112;28;20460;-56
2022/12/07 02:14:16;;;;;;;8.93;5.50;;;3.00;99.90;;;;;;5054466;28;20532;-56
2022/12/07 02:16:53;;;;;;;6.07;5.10;;;3.00;99.90;;;;;;5042493;28;20469;-56
2022/12/07 02:19:56;;;;;;;14.70;5.37;;;3.10;99.90;;;;;;5034845;28;20475;-55
2022/12/07 02:22:55;;;;;;;7.47;4.93;;;3.10;99.90;;;;;;5034517;28;20831;-55
2022/12/07 02:25:38;;;;;;;10.13;4.33;;;3.10;99.90;;;;;;5001868;28;20472;-55
2022/12/07 02:28:13;;;;;;;6.67;4.47;;;3.00;99.90;;;;;;5045897;28;20491;-55
2022/12/07 02:30:48;;;;;;;6.57;4.27;;;3.00;99.90;;;;;;5038981;28;20990;-55
2022/12/07 02:33:22;;;;;;;6.60;4.03;;;2.90;99.90;;;;;;5027190;28;20460;-55
2022/12/07 02:35:59;;;;;;;7.47;4.50;;;2.90;99.90;;;;;;5034277;28;20472;-55
2022/12/07 02:38:32;;;;;;;7.70;4.47;;;2.90;99.90;;;;;;5033879;28;20524;-55
2022/12/07 02:41:05;;;;;;;9.77;4.50;;;2.90;99.90;;;;;;5042374;28;20474;-56
2022/12/07 02:43:38;;;;;;;6.30;4.13;;;2.90;99.90;;;;;;5049051;28;20503;-55
2022/12/07 02:46:12;;;;;;;5.07;3.47;;;2.90;99.90;;;;;;5054090;28;20602;-55
2022/12/07 02:48:42;;;;;;;7.33;4.10;;;2.80;99.90;;;;;;5053981;28;20476;-55
2022/12/07 02:51:10;;;;;;;7.13;3.47;;;2.90;99.90;;;;;;5043290;28;20807;-55
2022/12/07 02:53:40;;;;;;;6.60;3.60;;;3.00;99.90;;;;;;5033763;28;20478;-56
2022/12/07 02:56:13;;;;;;;4.50;2.40;;;2.80;99.90;;;;;;5041916;28;20493;-56
2022/12/07 02:58:54;;;;;;;5.07;2.97;;;2.80;99.90;;;;;;5049531;28;20474;-56
2022/12/07 03:01:32;;;;;;;6.57;2.70;;;2.80;99.90;;;;;;5044051;28;20467;-55
2022/12/07 03:04:12;;;;;;;3.63;2.63;;;2.80;99.90;;;;;;5033652;28;20483;-54
2022/12/07 03:06:49;;;;;;;5.13;2.60;;;2.70;99.90;;;;;;5033258;28;20537;-55
2022/12/07 03:09:26;;;;;;;5.07;2.07;;;2.70;99.90;;;;;;5033470;28;20479;-56
2022/12/07 03:12:01;;;;;;;3.70;2.13;;;2.70;99.90;;;;;;5043152;28;20475;-55
2022/12/07 03:14:35;;;;;;;5.47;2.20;;;2.70;99.90;;;;;;5053450;28;20477;-53
2022/12/07 03:17:09;;;;;;;3.93;1.87;;;2.60;99.90;;;;;;5053506;28;20852;-55
2022/12/07 03:19:38;;;;;;;5.00;1.77;;;2.60;99.90;;;;;;5053380;28;20471;-56
2022/12/07 03:22:11;;;;;;;3.00;1.70;;;2.60;99.90;;;;;;5038517;28;20519;-54
2022/12/07 03:24:42;;;;;;;6.47;2.30;;;2.60;99.90;;;;;;5033012;28;20489;-55
2022/12/07 03:27:17;;;;;;;4.57;1.70;;;2.70;99.90;;;;;;5033407;28;20459;-54
2022/12/07 03:29:49;;;;;;;3.63;1.63;;;2.70;99.90;;;;;;5033054;28;20518;-55
2022/12/07 03:32:27;;;;;;;5.93;2.10;;;2.80;99.90;;;;;;5032530;28;20484;-55
2022/12/07 03:35:03;;;;;;;6.57;1.80;;;2.70;99.90;;;;;;5032967;28;20468;-55
2022/12/07 03:37:37;;;;;;;3.03;1.80;;;2.60;99.90;;;;;;5032640;28;20460;-54
2022/12/07 03:40:12;;;;;;;3.80;1.77;;;2.60;99.90;;;;;;5035853;28;20473;-54
2022/12/07 03:42:41;;;;;;;4.60;1.50;;;2.60;99.90;;;;;;5044579;28;20463;-54
2022/12/07 03:45:11;;;;;;;4.97;2.10;;;2.60;99.90;;;;;;5052858;28;20475;-55
2022/12/07 03:47:47;;;;;;;2.90;1.53;;;2.60;99.90;;;;;;5052631;28;20516;-53
2022/12/07 03:50:26;;;;;;;5.03;2.00;;;2.50;99.90;;;;;;5047287;28;20472;-55
2022/12/07 03:52:57;;;;;;;2.87;1.90;;;2.60;99.90;;;;;;5032788;28;20455;-55
2022/12/07 03:55:29;;;;;;;3.17;1.60;;;2.50;99.90;;;;;;5038380;28;20472;-54
2022/12/07 03:58:00;;;;;;;4.53;1.87;;;2.50;99.90;;;;;;5044328;28;20522;-56
2022/12/07 04:00:29;;;;;;;5.00;1.87;;;2.60;99.90;;;;;;5050170;28;20483;-56
2022/12/07 04:02:58;;;;;;;5.13;2.00;;;2.80;99.90;;;;;;5032421;28;20488;-55
2022/12/07 04:05:27;;;;;;;4.03;1.83;;;2.90;99.90;;;;;;5031867;28;20467;-56
2022/12/07 04:07:55;;;;;;;4.33;1.90;;;3.00;99.90;;;;;;5032660;28;20476;-56
2022/12/07 04:10:23;;;;;;;4.60;2.10;;;3.00;99.90;;;;;;5038267;28;20466;-56
2022/12/07 04:12:51;;;;;;;7.13;2.10;;;3.00;99.90;;;;;;5044148;28;20520;-54
2022/12/07 04:15:19;;;;;;;4.17;2.10;;;2.90;99.90;;;;;;5033853;28;20876;-55
2022/12/07 04:17:47;;;;;;;3.57;2.10;;;2.90;99.90;;;;;;5032538;28;20482;-54
2022/12/07 04:20:17;;;;;;;2.83;1.90;;;3.10;99.90;;;;;;5032335;28;20523;-55
2022/12/07 04:22:45;;;;;;;4.13;1.80;;;3.00;99.90;;;;;;5032687;28;21498;-55
2022/12/07 04:25:13;;;;;;;4.03;1.80;;;2.90;99.90;;;;;;5036475;28;20460;-56
2022/12/07 04:27:41;;;;;;;5.17;1.83;;;2.90;99.90;;;;;;5035589;28;20984;-54
2022/12/07 04:30:10;;;;;;;2.77;1.80;;;2.80;99.90;;;;;;5032244;28;20461;-56
2022/12/07 04:32:38;;;;;;;2.70;1.97;;;2.80;99.90;;;;;;5011054;28;20477;-53
2022/12/07 04:35:07;;;;;;;4.27;2.10;;;2.80;99.90;;;;;;5012157;28;20466;-55
2022/12/07 04:37:38;;;;;;;4.13;1.80;;;2.70;99.90;;;;;;5012220;28;21036;-55
2022/12/07 04:40:10;;;;;;;6.63;1.97;;;2.70;99.90;;;;;;5015569;28;20485;-55
2022/12/07 04:42:38;;;;;;;4.10;1.87;;;2.80;99.90;;;;;;5024119;28;20987;-55
2022/12/07 04:45:08;;;;;;;4.20;1.63;;;2.70;99.90;;;;;;5015979;28;20490;-55
2022/12/07 04:47:36;;;;;;;3.13;1.60;;;2.60;99.90;;;;;;5012532;28;20473;-52
2022/12/07 04:50:05;;;;;;;4.17;1.50;;;2.60;99.90;;;;;;5017005;28;20486;-56
2022/12/07 04:52:33;;;;;;;3.63;1.60;;;2.60;99.90;;;;;;5013708;28;20471;-54
2022/12/07 04:55:03;;;;;;;3.73;1.57;;;2.70;99.90;;;;;;5005168;28;20465;-55
2022/12/07 04:57:31;;;;;;;4.10;1.80;;;2.80;99.90;;;;;;5027545;28;20475;-55
2022/12/07 04:59:59;;;;;;;5.93;1.60;;;2.80;99.90;;;;;;5022264;28;21006;-55
2022/12/07 05:02:27;;;;;;;3.37;1.70;;;2.90;99.90;;;;;;5014654;28;20840;-55
2022/12/07 05:04:56;;;;;;;4.10;1.60;;;2.70;99.90;;;;;;5015753;28;20531;-55
2022/12/07 05:07:24;;;;;;;5.00;1.60;;;2.60;99.90;;;;;;5016230;28;20468;-54
2022/12/07 05:09:52;;;;;;;6.80;1.87;;;2.50;99.90;;;;;;5016294;28;20468;-55
2022/12/07 05:12:21;;;;;;;3.20;1.90;;;2.70;99.90;;;;;;5016149;28;20561;-56
2022/12/07 05:14:49;;;;;;;4.33;1.93;;;2.60;99.90;;;;;;5016126;28;20474;-55
2022/12/07 05:17:17;;;;;;;3.83;1.80;;;2.60;99.90;;;;;;5015973;28;20478;-55
2022/12/07 05:19:45;;;;;;;3.13;1.53;;;2.50;99.90;;;;;;5015725;28;20461;-54
2022/12/07 05:22:14;;;;;;;3.97;1.60;;;2.50;99.90;;;;;;5016049;28;20956;-56
2022/12/07 05:24:42;;;;;;;5.93;1.60;;;2.50;99.90;;;;;;5015816;28;20489;-53
2022/12/07 05:27:10;;;;;;;4.10;1.50;;;2.50;99.90;;;;;;5007899;28;20478;-55
2022/12/07 05:29:40;;;;;;;3.30;1.30;;;2.50;99.90;;;;;;5015143;28;20511;-55
2022/12/07 05:32:09;;;;;;;2.87;1.47;;;2.50;99.90;;;;;;5031060;28;20477;-56
2022/12/07 05:34:37;;;;;;;4.73;1.40;;;2.50;99.90;;;;;;5035274;28;21024;-55
2022/12/07 05:37:05;;;;;;;3.00;1.20;;;2.60;99.90;;;;;;5035422;28;20470;-54
2022/12/07 05:39:33;;;;;;;1.97;1.20;;;2.60;99.90;;;;;;5035100;28;20471;-55
2022/12/07 05:42:13;;;;;;;3.23;1.40;;;2.70;99.90;;;;;;5035022;28;20468;-54
2022/12/07 05:44:45;;;;;;;2.93;1.33;;;2.60;99.90;;;;;;5035219;28;20496;-53
2022/12/07 05:47:14;;;;;;;3.43;1.20;;;2.60;99.90;;;;;;5034869;28;20559;-53
2022/12/07 05:49:42;;;;;;;2.27;1.10;;;2.60;99.90;;;;;;5034908;28;20521;-56
2022/12/07 05:52:10;;;;;;;2.57;1.20;;;2.50;99.90;;;;;;5035306;28;20519;-53
2022/12/07 05:54:38;;;;;;;2.03;1.07;;;2.50;99.90;;;;;;5035036;28;20546;-56
2022/12/07 05:57:06;;;;;;;1.60;1.00;;;2.50;99.90;;;;;;5034340;28;20468;-55
2022/12/07 05:59:33;;;;;;;1.50;0.87;;;2.50;99.90;;;;;;5032652;28;20479;-55
2022/12/07 06:02:05;;;;;;;1.37;0.97;;;2.50;99.90;;;;;;5031568;28;20579;-55
2022/12/07 06:04:36;;;;;;;3.80;1.17;;;2.40;99.90;;;;;;5033312;28;21095;-55
2022/12/07 06:07:05;;;;;;;3.17;1.20;;;2.40;99.90;;;;;;5033695;28;20574;-55
2022/12/07 06:09:34;;;;;;;3.53;0.90;;;2.40;99.90;;;;;;5033858;28;20466;-54
2022/12/07 06:14:48;;;;;;;2.23;1.20;;;2.40;99.90;;;;;;5034413;28;20971;-55
2022/12/07 06:17:18;;;;;;;1.63;1.00;;;2.50;99.90;;;;;;5034188;28;20476;-53
2022/12/07 06:19:46;;;;;;;1.50;1.00;;;2.40;99.90;;;;;;5034296;28;20464;-55
2022/12/07 06:22:15;;;;;;;3.63;1.20;;;2.40;99.90;;;;;;5034205;28;20875;-55
2022/12/07 06:24:44;;;;;;;3.07;1.13;;;2.40;99.90;;;;;;5033380;28;20525;-55
2022/12/07 06:27:12;;;;;;;3.10;1.20;;;2.40;99.90;;;;;;5039670;28;20863;-55
2022/12/07 06:29:40;;;;;;;3.83;1.47;;;2.40;99.90;;;;;;5054149;28;20525;-55
2022/12/07 06:32:08;;;;;;;5.33;1.37;;;2.50;99.90;;;;;;5018802;28;20478;-56
2022/12/07 06:34:38;;;;;;;2.07;1.40;;;2.50;99.90;;;;;;5014137;28;20879;-54
2022/12/07 06:37:06;;;;;;;3.10;1.10;;;2.40;99.90;;;;;;5014662;28;20466;-54
2022/12/07 06:39:34;;;;;;;3.90;1.20;;;2.50;99.90;;;;;;5014479;28;20483;-55
2022/12/07 06:42:02;;;;;;;2.10;1.10;;;2.50;99.90;;;;;;5014465;28;20988;-55
2022/12/07 06:44:30;;;;;;;2.93;1.23;;;2.50;99.90;;;;;;5013786;28;20482;-55
2022/12/07 06:46:58;;;;;;;2.70;1.20;;;2.40;99.90;;;;;;5014505;28;20469;-54
2022/12/07 06:49:48;;;;;;;4.13;1.17;;;2.40;99.90;;;;;;5013543;28;20484;-54
2022/12/07 06:52:16;;;;;;;4.60;1.10;;;2.40;99.90;;;;;;5014410;28;20968;-56
2022/12/07 06:54:44;;;;;;;3.20;1.03;;;2.40;99.90;;;;;;5013379;28;20464;-55
2022/12/07 06:57:12;;;;;;;2.93;1.30;;;2.40;99.90;;;;;;5014121;28;20459;-55
2022/12/07 06:59:40;;;;;;;3.43;1.37;;;2.40;99.90;;;;;;5014090;28;20813;-54
2022/12/07 07:02:09;;;;;;;5.40;1.50;;;2.40;99.90;;;;;;5012063;28;20838;-54
2022/12/07 07:04:37;;;;;;;1.93;1.20;;;2.40;99.90;;;;;;5013003;28;20490;-53
2022/12/07 07:07:07;;;;;;;4.03;1.37;;;2.40;99.90;;;;;;5013994;28;20476;-55
2022/12/07 07:09:35;;;;;;;5.30;1.60;;;2.50;99.90;;;;;;5013683;28;20831;-55
2022/12/07 07:12:03;;;;;;;3.10;1.20;;;2.50;99.90;;;;;;5011760;28;20526;-54
2022/12/07 07:14:32;;;;;;;3.57;1.40;;;2.50;99.90;;;;;;5013635;28;20484;-54
2022/12/07 07:17:00;;;;;;;3.10;1.60;;;2.50;99.90;;;;;;5011384;28;20544;-55
2022/12/07 07:19:28;;;;;;;5.20;1.33;;;2.50;99.90;;;;;;5004848;28;20481;-56
2022/12/07 07:21:56;;;;;;;4.10;1.30;;;2.50;99.90;;;;;;5003896;28;20481;-54
2022/12/07 07:24:26;;;;;;;3.73;1.30;;;2.50;99.90;;;;;;5004283;28;20476;-54
2022/12/07 07:26:54;;;;;;;3.73;1.77;;;2.50;99.90;;;;;;5004140;28;20496;-56
2022/12/07 07:29:22;;;;;;;2.60;1.33;;;2.50;99.90;;;;;;5004651;28;20469;-55
2022/12/07 07:31:50;;;;;;;3.37;1.40;;;2.50;99.90;;;;;;5002880;28;20483;-56
2022/12/07 07:34:18;;;;;;;2.83;1.40;;;2.50;99.90;;;;;;5004913;28;20993;-56
2022/12/07 07:36:46;;;;;;;5.90;1.37;;;2.50;99.90;;;;;;5004804;28;20872;-54
2022/12/07 07:39:14;;;;;;;2.50;1.30;;;2.50;99.90;;;;;;5004754;28;20481;-53
2022/12/07 07:41:44;;;;;;;4.90;1.60;;;2.50;99.90;;;;;;5004309;28;20480;-55
2022/12/07 07:44:14;;;;;;;2.70;1.30;;;2.60;99.90;;;;;;5002803;28;21076;-55
2022/12/07 07:46:42;;;;;;;3.47;1.17;;;2.50;99.90;;;;;;5004745;28;20504;-54
2022/12/07 07:49:11;;;;;;;3.03;1.40;;;2.50;99.90;;;;;;5004726;28;20995;-55
2022/12/07 07:51:39;;;;;;;3.43;1.67;;;2.60;99.90;;;;;;5003944;28;20464;-56
2022/12/07 07:54:07;;;;;;;3.33;1.90;;;2.60;99.90;;;;;;5003396;28;20479;-55
2022/12/07 07:56:35;;;;;;;3.67;1.37;;;2.70;99.90;;;;;;5004140;28;20481;-55
2022/12/07 07:59:04;;;;;;;2.33;1.27;;;2.70;99.90;;;;;;5004073;28;20482;-55
2022/12/07 08:01:32;;;;;;;3.97;1.63;;;2.60;99.90;;;;;;5003611;28;20473;-55
2022/12/07 08:04:00;;;;;;;2.73;1.40;;;2.70;99.90;;;;;;5002892;28;20473;-53
2022/12/07 08:06:28;;;;;;;2.40;1.43;;;2.70;99.90;;;;;;5004131;28;20788;-54
2022/12/07 08:08:59;;;;;;;1.70;1.30;;;2.70;99.90;;;;;;5005271;28;20487;-55
2022/12/07 08:11:28;;;;;;;4.03;1.60;;;2.70;99.90;;;;;;5004388;28;20466;-54
2022/12/07 08:13:56;;;;;;;5.03;1.60;;;2.70;99.90;;;;;;5002727;28;20481;-56
2022/12/07 08:16:26;;;;;;;4.57;1.50;;;2.70;99.90;;;;;;5005047;28;20554;-55
2022/12/07 08:18:55;;;;;;;3.17;1.47;;;2.80;99.90;;;;;;5004594;28;20483;-55
2022/12/07 08:21:23;;;;;;;4.80;1.67;;;2.80;99.90;;;;;;5004872;28;21063;-55
2022/12/07 08:23:51;;;;;;;3.10;1.40;;;2.80;99.90;;;;;;5007721;28;20485;-55
2022/12/07 08:26:19;;;;;;;5.63;2.37;;;2.90;99.90;;;;;;5009174;28;20504;-54
2022/12/07 08:28:47;;;;;;;3.57;1.50;;;2.90;99.90;;;;;;5008155;28;20868;-55
2022/12/07 08:31:17;;;;;;;3.53;1.87;;;2.90;99.90;;;;;;5007597;28;20487;-55
2022/12/07 08:33:48;;;;;;;9.03;2.10;;;2.90;99.90;;;;;;5006477;28;20825;-55
2022/12/07 08:36:16;;;;;;;5.47;1.87;;;2.90;99.90;;;;;;5007768;28;20478;-56
2022/12/07 08:38:45;;;;;;;5.13;1.60;;;2.90;99.90;;;;;;5007896;28;21409;-56
2022/12/07 08:41:33;;;;;;;5.17;1.73;;;3.00;99.90;;;;;;5007299;28;20527;-55
2022/12/07 08:44:01;;;;;;;4.07;1.53;;;3.00;99.90;;;;;;5006659;28;20575;-56
2022/12/07 08:46:34;;;;;;;3.47;1.70;;;3.00;99.90;;;;;;5007736;28;20501;-56
2022/12/07 08:49:08;;;;;;;3.53;1.40;;;3.10;99.90;;;;;;5008107;28;20829;-56
2022/12/07 08:51:37;;;;;;;7.33;1.87;;;3.10;99.90;;;;;;5006486;28;20813;-55
2022/12/07 08:54:07;;;;;;;5.07;1.60;;;3.10;99.90;;;;;;5005551;28;20489;-55
2022/12/07 08:56:36;;;;;;;3.20;1.40;;;3.00;99.90;;;;;;5005464;28;20478;-55
2022/12/07 08:59:06;;;;;;;7.60;1.40;;;3.00;99.90;;;;;;5006849;28;20482;-55
2022/12/07 09:01:34;;;;;;;4.87;1.20;;;3.00;99.90;;;;;;5005746;28;20492;-54
2022/12/07 09:04:04;;;;;;;7.23;1.73;;;3.00;99.90;;;;;;5006065;28;20504;-54
2022/12/07 09:06:32;;;;;;;3.60;1.03;;;3.00;99.90;;;;;;5006363;28;20505;-54
2022/12/07 09:09:02;;;;;;;2.33;0.90;;;3.00;99.90;;;;;;5007257;28;20857;-54
2022/12/07 09:11:30;;;;;;;2.23;1.00;;;3.00;99.90;;;;;;5006907;28;20485;-53
2022/12/07 09:13:58;;;;;;;3.60;1.10;;;3.00;99.90;;;;;;5005858;28;21168;-55
2022/12/07 09:16:27;;;;;;;4.80;0.93;;;3.10;99.90;;;;;;5006927;28;20472;-56
2022/12/07 09:18:55;;;;;;;4.03;1.30;;;3.10;99.90;;;;;;5007238;28;20543;-53
2022/12/07 09:21:24;;;;;;;3.37;1.00;;;3.10;99.90;;;;;;5006911;28;21030;-57
2022/12/07 09:23:52;;;;;;;5.90;1.33;;;3.10;99.90;;;;;;5006055;28;20480;-53
2022/12/07 09:26:20;;;;;;;4.03;1.13;;;3.10;99.90;;;;;;5006815;28;20499;-55
2022/12/07 09:28:48;;;;;;;5.20;1.40;;;3.10;99.90;;;;;;5006646;28;20477;-54
2022/12/07 09:31:16;;;;;;;5.13;1.30;;;3.10;99.90;;;;;;5006271;28;20486;-54
2022/12/07 09:33:56;;;;;;;3.63;1.10;;;3.30;99.90;;;;;;5005631;28;20483;-55
2022/12/07 09:36:27;;;;;;;2.63;1.37;;;3.30;99.90;;;;;;5007968;28;21074;-55
2022/12/07 09:38:56;;;;;;;3.47;1.10;;;3.40;99.90;;;;;;5008237;28;20494;-55
2022/12/07 09:41:26;;;;;;;4.37;1.00;;;3.30;99.90;;;;;;5006430;28;20465;-55
2022/12/07 09:43:55;;;;;;;3.70;1.23;;;3.30;99.90;;;;;;5005089;28;20803;-55
2022/12/07 09:46:23;;;;;;;2.60;0.97;;;3.30;99.90;;;;;;5006115;28;20488;-54
2022/12/07 09:48:52;;;;;;;4.83;1.27;;;3.30;99.90;;;;;;5006722;28;20760;-56
2022/12/07 09:51:22;;;;;;;3.07;1.27;;;3.40;99.90;;;;;;5007115;28;20498;-56
2022/12/07 09:53:57;;;;;;;6.17;1.53;;;3.40;99.90;;;;;;5005379;28;20559;-54
2022/12/07 09:56:25;;;;;;;5.10;1.47;;;3.50;99.90;;;;;;5007906;28;20466;-55
2022/12/07 09:59:01;;;;;;;4.57;1.13;;;3.50;99.90;;;;;;5007261;28;20489;-54
2022/12/07 10:01:31;;;;;;;5.07;1.53;;;3.60;99.90;;;;;;5006673;28;21012;-56
2022/12/07 10:04:09;;;;;;;2.90;0.90;;;3.60;99.90;;;;;;5006521;28;20493;-54
2022/12/07 10:06:37;;;;;;;4.73;1.07;;;3.60;99.90;;;;;;5006159;28;20525;-56
2022/12/07 10:09:12;;;;;;;3.47;1.10;;;3.60;99.90;;;;;;5005854;28;20836;-56
2022/12/07 10:11:59;;;;;;;3.50;1.00;;;3.70;99.90;;;;;;5006317;28;20596;-57
2022/12/07 10:14:29;;;;;;;4.13;1.40;;;3.70;99.90;;;;;;5005532;28;20463;-54
2022/12/07 10:17:36;;;;;;;4.87;1.07;;;3.70;99.90;;;;;;5006367;28;20476;-55
2022/12/07 10:20:19;;;;;;;5.50;1.10;;;3.80;99.90;;;;;;5005886;28;20474;-55
2022/12/07 10:22:59;;;;;;;3.60;0.97;;;3.80;99.90;;;;;;5005198;28;20486;-55
2022/12/07 10:25:32;;;;;;;4.50;0.80;;;3.90;99.90;;;;;;5005936;28;20844;-55
2022/12/07 10:28:02;;;;;;;2.67;0.90;;;3.90;99.90;;;;;;5004989;28;20491;-56
2022/12/07 10:30:32;;;;;;;3.70;0.87;;;3.90;99.90;;;;;;5004984;28;20529;-54
2022/12/07 10:33:00;;;;;;;3.30;1.10;;;3.80;99.90;;;;;;5003706;28;20974;-56
2022/12/07 10:35:30;;;;;;;4.07;1.10;;;3.90;99.90;;;;;;5005828;28;20481;-56
2022/12/07 10:38:02;;;;;;;6.57;1.20;;;3.90;99.90;;;;;;5005485;28;20932;-56
2022/12/07 10:40:35;;;;;;;3.40;0.93;;;3.90;99.90;;;;;;5005004;28;20466;-56
2022/12/07 10:43:07;;;;;;;2.97;1.07;;;3.90;99.90;;;;;;5004419;28;20479;-55
2022/12/07 10:45:46;;;;;;;5.00;1.10;;;3.90;99.90;;;;;;5004266;28;20960;-55
2022/12/07 10:48:40;;;;;;;4.20;1.00;;;3.90;99.90;;;;;;5005941;28;20489;-54
2022/12/07 10:51:13;;;;;;;3.27;0.80;;;3.90;99.90;;;;;;5005812;28;20832;-56
2022/12/07 10:53:55;;;;;;;2.17;0.80;;;3.90;99.90;;;;;;5003985;28;20571;-54
2022/12/07 10:56:55;;;;;;;1.67;0.73;;;3.90;99.90;;;;;;5005166;28;20497;-56
2022/12/07 10:59:53;;;;;;;7.77;1.20;;;3.90;99.90;;;;;;5000146;28;21012;-55
2022/12/07 11:02:44;;;;;;;3.57;1.10;;;4.00;99.90;;;;;;5003187;28;21050;-56
2022/12/07 11:05:24;;;;;;;2.50;0.90;;;4.00;99.90;;;;;;5004668;28;20496;-55
2022/12/07 11:08:04;;;;;;;7.73;1.10;;;4.10;99.90;;;;;;5004904;28;20999;-54
2022/12/07 11:10:41;;;;;;;5.27;1.10;;;4.20;99.90;;;;;;5004735;28;20470;-56
2022/12/07 11:13:23;;;;;;;5.63;1.13;;;4.20;99.90;;;;;;5004952;28;20548;-54
2022/12/07 11:16:20;;;;;;;5.13;1.20;;;4.30;99.90;;;;;;5004787;28;20484;-56
2022/12/07 11:18:59;;;;;;;4.00;1.20;;;4.30;99.90;;;;;;5003629;28;20603;-54
2022/12/07 11:21:35;;;;;;;3.87;0.93;;;4.30;99.90;;;;;;5004609;28;20569;-54
2022/12/07 11:24:10;;;;;;;5.63;1.13;;;4.40;99.90;;;;;;5003832;28;20474;-57
2022/12/07 11:27:07;;;;;;;6.73;1.93;;;4.50;99.90;;;;;;5004831;28;20477;-54
2022/12/07 11:29:53;;;;;;;3.93;1.27;;;4.60;99.90;;;;;;5004715;28;20471;-55
2022/12/07 11:32:33;;;;;;;3.10;0.90;;;4.60;99.90;;;;;;5003161;28;20475;-52
2022/12/07 11:35:09;;;;;;;5.10;1.20;;;4.60;99.90;;;;;;5004364;28;21035;-54
2022/12/07 11:37:40;;;;;;;3.67;1.40;;;4.60;99.90;;;;;;5003775;28;20971;-56
2022/12/07 11:40:20;;;;;;;5.43;1.20;;;4.60;99.90;;;;;;5003812;28;20840;-55
2022/12/07 11:42:53;;;;;;;9.33;1.70;;;4.70;99.90;;;;;;5002869;28;20871;-55
2022/12/07 11:45:26;;;;;;;5.97;1.37;;;4.70;99.90;;;;;;5003384;28;20467;-53
2022/12/07 11:47:59;;;;;;;5.33;1.07;;;4.70;99.90;;;;;;5002570;28;20500;-55
2022/12/07 11:50:33;;;;;;;3.53;1.20;;;4.70;99.90;;;;;;5003035;28;20476;-56
2022/12/07 11:53:06;;;;;;;4.70;1.37;;;4.60;99.90;;;;;;5002736;28;20474;-54
2022/12/07 11:55:44;;;;;;;4.33;1.00;;;4.60;99.90;;;;;;5002988;28;20505;-54
2022/12/07 11:58:24;;;;;;;3.03;0.93;;;4.60;99.90;;;;;;5004855;28;20505;-53
2022/12/07 12:01:02;;;;;;;5.53;1.17;;;4.60;99.90;;;;;;5004641;28;20893;-56
2022/12/07 12:03:36;;;;;;;2.97;1.30;;;4.60;99.90;;;;;;5003211;28;20483;-55
2022/12/07 12:06:05;;;;;;;5.23;1.50;;;4.70;99.90;;;;;;5004812;28;20910;-55
2022/12/07 12:08:39;;;;;;;4.57;1.47;;;4.70;99.90;;;;;;5004918;28;20586;-54
2022/12/07 12:11:42;;;;;;;3.77;1.53;;;4.70;99.90;;;;;;5005074;28;20475;-55
2022/12/07 12:14:41;;;;;;;6.57;1.77;;;4.60;99.90;;;;;;5005438;28;20574;-55
2022/12/07 12:17:39;;;;;;;5.33;1.10;;;4.60;99.90;;;;;;5005830;28;20511;-55
2022/12/07 12:20:20;;;;;;;4.07;1.37;;;4.60;99.90;;;;;;5005232;28;20464;-55
2022/12/07 12:22:53;;;;;;;6.60;1.10;;;4.60;99.90;;;;;;5004630;28;21014;-55
2022/12/07 12:25:24;;;;;;;4.27;1.20;;;4.60;99.90;;;;;;5005751;28;20475;-52
2022/12/07 12:27:56;;;;;;;4.07;0.93;;;4.70;99.90;;;;;;5005941;28;20510;-55
2022/12/07 12:30:32;;;;;;;4.07;1.20;;;4.70;99.90;;;;;;5005068;28;20487;-55
2022/12/07 12:33:13;;;;;;;3.67;1.10;;;4.70;99.90;;;;;;5004707;28;20471;-54
2022/12/07 12:35:42;;;;;;;4.77;1.27;;;4.70;99.90;;;;;;5005613;28;20479;-56
2022/12/07 12:38:29;;;;;;;6.50;1.37;;;4.70;99.90;;;;;;5006069;28;20468;-55
2022/12/07 12:40:58;;;;;;;3.73;1.53;;;4.70;99.90;;;;;;5005808;28;20832;-52
2022/12/07 12:43:49;;;;;;;5.80;1.20;;;4.70;99.90;;;;;;5001391;28;21127;-53
2022/12/07 12:46:49;;;;;;;4.87;1.50;;;4.80;99.90;;;;;;5000491;28;20623;-55
2022/12/07 12:50:06;;;;;;;3.80;1.40;;;4.90;99.90;;;;;;5002817;28;20495;-55
2022/12/07 12:53:03;;;;;;;4.03;1.37;;;5.00;99.90;;;;;;5001731;28;21472;-57
2022/12/07 12:56:06;;;;;;;5.67;1.40;;;5.00;99.90;;;;;;5002966;28;20466;-53
2022/12/07 12:58:37;;;;;;;4.37;1.00;;;5.10;99.90;;;;;;5002387;28;20479;-55
2022/12/07 13:01:48;;;;;;;2.43;1.37;;;5.10;99.90;;;;;;5002601;28;20506;-55
2022/12/07 13:04:42;;;;;;;4.63;1.50;;;5.20;99.90;;;;;;5002684;28;20460;-54
2022/12/07 13:07:14;;;;;;;5.23;1.40;;;5.20;99.90;;;;;;5003578;28;20475;-53
2022/12/07 13:09:48;;;;;;;6.80;1.30;;;5.20;99.90;;;;;;5003890;28;20471;-56
2022/12/07 13:12:20;;;;;;;4.63;1.40;;;5.00;99.90;;;;;;5004889;28;20275;-54
2022/12/07 13:14:57;;;;;;;5.53;1.23;;;4.90;99.90;;;;;;5004789;28;20542;-54
2022/12/07 13:18:01;;;;;;;4.00;1.40;;;4.90;99.90;;;;;;5006452;28;20498;-54
2022/12/07 13:20:50;;;;;;;4.77;1.27;;;4.80;99.90;;;;;;5006077;28;20470;-55
2022/12/07 13:23:22;;;;;;;6.17;1.37;;;4.90;99.90;;;;;;5004459;28;20975;-53
2022/12/07 13:25:59;;;;;;;3.53;1.10;;;4.90;99.90;;;;;;5005972;28;20486;-54
2022/12/07 13:28:35;;;;;;;3.07;1.00;;;4.90;99.90;;;;;;5005792;28;20494;-56